To NAV CANADA Home Page Login to a new session Search on AWWS site Disclaimer Vers la page française équivalente Tips FAQ What's new on the site To the Forecasts and Observations / NOTAM section To "File a Flight Plan" website Publications and other links Update of the User's profile FIC Telephone Numbers My Weather Data Folder Route Weather Data Regional Weather Data Local Weather Data To the Forecasts and Observations / NOTAM section
Request Generated 03/21/2019 at 02:12:27 UTC . Weather information available at that time is displayed.

METAR/TAF

NORTH BAY/ON    (show WxCam)

METAR CYYB 210200Z 26006KT 15SM -SN OVC033 02/M01 A3001 RMK SC8 LAST STFD OBS/NEXT 211100 UTC SLP181=
METAR CYYB 210100Z 25006KT 210V270 15SM OVC036 03/M01 A3001 RMK SC8 SLP180=
METAR CYYB 210000Z 23005G15KT 190V270 15SM OVC039 03/M01 A3000 RMK SC8 SLP177=

TAF CYYB 210141Z 2102/2114 22005KT P6SM FEW020 OVC060 TEMPO 2102/2107
5SM -RASN BR BKN020 OVC060
FM210700 18005KT 6SM BR FEW008 OVC020 TEMPO 2107/2113 3SM -SNRA
BR OVC008 PROB30 2107/2113 1SM -SN BR OVC004
FM211300 19008KT P6SM FEW008 OVC025
RMK NXT FCST BY 210800Z=
Your time UTC time
Weather data provided by Environment Canada and NAV CANADA